createdAt,value
2023-04-01T00:01:21.092Z,5.03
2023-04-01T00:03:48.390Z,5.47
2023-04-01T00:06:18.052Z,5.35
2023-04-01T00:08:45.797Z,5.78
2023-04-01T00:11:12.932Z,5.88
2023-04-01T00:13:39.842Z,5.30
2023-04-01T00:16:19.927Z,6.00
2023-04-01T00:18:48.441Z,6.55
2023-04-01T00:21:16.894Z,6.55
2023-04-01T00:23:44.572Z,6.63
2023-04-01T00:26:13.147Z,7.10
2023-04-01T00:28:40.528Z,8.88
2023-04-01T00:31:12.151Z,8.30
2023-04-01T00:33:39.722Z,8.15
2023-04-01T00:36:18.092Z,8.20
2023-04-01T00:38:45.765Z,8.75
2023-04-01T00:41:16.946Z,9.50
2023-04-01T00:43:47.539Z,8.40
2023-04-01T00:46:14.970Z,9.45
2023-04-01T00:48:49.480Z,8.52
2023-04-01T00:51:22.572Z,9.60
2023-04-01T00:53:52.096Z,9.13
2023-04-01T00:56:23.624Z,10.48
2023-04-01T00:58:58.711Z,10.70
2023-04-01T01:01:26.965Z,11.65
2023-04-01T01:03:53.850Z,13.38
2023-04-01T01:06:40.223Z,13.60
2023-04-01T01:09:40.881Z,13.75
2023-04-01T01:12:16.901Z,13.93
2023-04-01T01:15:08.613Z,13.80
2023-04-01T01:18:03.050Z,16.30
2023-04-01T01:20:50.868Z,19.65
2023-04-01T01:23:35.661Z,17.73
2023-04-01T01:26:22.129Z,12.98
2023-04-01T01:29:32.972Z,14.57
2023-04-01T01:32:18.281Z,15.88
2023-04-01T01:34:48.170Z,14.75
2023-04-01T01:37:18.383Z,15.85
2023-04-01T01:39:50.465Z,14.63
2023-04-01T01:42:19.260Z,11.68
2023-04-01T01:44:48.363Z,10.60
2023-04-01T01:47:16.894Z,9.93
2023-04-01T01:49:45.979Z,11.55
2023-04-01T01:52:14.235Z,11.63
2023-04-01T01:55:01.305Z,11.15
2023-04-01T01:57:32.796Z,8.90
2023-04-01T02:00:14.722Z,8.43
2023-04-01T02:02:47.710Z,8.90
2023-04-01T02:05:22.053Z,6.97
2023-04-01T02:07:56.212Z,7.55
2023-04-01T02:10:25.571Z,7.10
2023-04-01T02:12:58.899Z,9.73
2023-04-01T02:15:28.505Z,8.65
2023-04-01T02:17:57.910Z,8.90
2023-04-01T02:20:25.936Z,10.63
2023-04-01T02:22:57.558Z,10.43
2023-04-01T02:25:35.863Z,11.32
2023-04-01T02:28:06.358Z,11.52
2023-04-01T02:30:36.442Z,11.55
2023-04-01T02:33:06.431Z,13.48
2023-04-01T02:35:36.561Z,12.85
2023-04-01T02:38:04.018Z,12.57
2023-04-01T02:40:30.923Z,10.23
2023-04-01T02:42:57.741Z,9.95
2023-04-01T02:45:24.630Z,9.38
2023-04-01T02:47:51.482Z,10.07
2023-04-01T02:50:18.376Z,8.85
2023-04-01T02:52:45.492Z,9.07
2023-04-01T02:55:12.345Z,8.07
2023-04-01T02:57:39.211Z,7.63
2023-04-01T03:00:12.063Z,6.78
2023-04-01T03:02:40.297Z,6.30
2023-04-01T03:05:08.241Z,6.03
2023-04-01T03:07:35.138Z,6.13
2023-04-01T03:10:01.974Z,7.13
2023-04-01T03:12:28.784Z,7.22
2023-04-01T03:14:55.775Z,7.63
2023-04-01T03:17:22.601Z,9.10
2023-04-01T03:19:49.421Z,8.95
2023-04-01T03:22:16.408Z,9.70
2023-04-01T03:24:43.207Z,7.90
2023-04-01T03:27:10.052Z,9.57
2023-04-01T03:29:36.948Z,8.93
2023-04-01T03:32:03.903Z,8.00
2023-04-01T03:34:30.944Z,7.90
2023-04-01T03:36:58.057Z,8.82
2023-04-01T03:39:25.164Z,9.20
2023-04-01T03:41:52.013Z,8.88
2023-04-01T03:44:18.776Z,9.13
2023-04-01T03:46:45.747Z,9.82
2023-04-01T03:49:12.900Z,9.82
2023-04-01T03:51:40.982Z,9.13
2023-04-01T03:54:08.280Z,9.90
2023-04-01T03:56:35.112Z,10.45
2023-04-01T03:59:07.025Z,10.07
2023-04-01T04:01:34.477Z,10.80
2023-04-01T04:04:01.581Z,10.25
2023-04-01T04:06:29.117Z,10.75
2023-04-01T04:08:56.061Z,9.85
2023-04-01T04:11:23.825Z,11.10
2023-04-01T04:13:50.734Z,10.60
2023-04-01T04:16:18.278Z,10.82
2023-04-01T04:18:45.161Z,11.02
2023-04-01T04:21:16.201Z,11.15
2023-04-01T04:23:43.972Z,11.02
2023-04-01T04:26:14.237Z,9.95
2023-04-01T04:28:41.606Z,10.23
2023-04-01T04:31:09.043Z,8.98
2023-04-01T04:33:36.858Z,9.63
2023-04-01T04:36:05.043Z,9.45
2023-04-01T04:38:32.100Z,9.90
2023-04-01T04:40:59.004Z,9.32
2023-04-01T04:43:25.876Z,9.80
2023-04-01T04:45:53.150Z,8.95
2023-04-01T04:48:21.354Z,8.30
2023-04-01T04:50:50.065Z,7.93
2023-04-01T04:53:19.322Z,7.97
2023-04-01T04:55:51.144Z,7.95
2023-04-01T04:58:18.434Z,7.60
2023-04-01T05:00:46.269Z,8.00
2023-04-01T05:03:14.282Z,7.68
2023-04-01T05:05:48.447Z,7.45
2023-04-01T05:08:15.433Z,6.78
2023-04-01T05:10:42.241Z,7.07
2023-04-01T05:13:09.096Z,6.75
2023-04-01T05:15:36.817Z,6.32
2023-04-01T05:18:03.920Z,5.90
2023-04-01T05:20:30.814Z,5.53
2023-04-01T05:22:58.358Z,5.70
2023-04-01T05:25:25.454Z,4.55
2023-04-01T05:27:52.730Z,4.90
2023-04-01T05:30:19.826Z,4.65
2023-04-01T05:32:46.687Z,4.50
2023-04-01T05:35:13.501Z,4.60
2023-04-01T05:37:40.325Z,4.30
2023-04-01T05:40:07.830Z,3.95
2023-04-01T05:42:36.776Z,4.07
2023-04-01T05:45:05.192Z,4.03
2023-04-01T05:47:32.035Z,4.63
2023-04-01T05:49:58.889Z,4.80
2023-04-01T05:52:25.700Z,5.15
2023-04-01T05:54:52.539Z,5.22
2023-04-01T05:57:19.631Z,5.05
2023-04-01T05:59:46.890Z,4.60
2023-04-01T06:02:14.118Z,4.65
2023-04-01T06:04:42.000Z,4.05
2023-04-01T06:07:17.086Z,4.60
2023-04-01T06:09:45.254Z,4.57
2023-04-01T06:12:37.581Z,4.75
2023-04-01T06:15:16.425Z,4.10
2023-04-01T06:18:24.633Z,4.63
2023-04-01T06:21:02.088Z,4.38
2023-04-01T06:24:05.772Z,4.60
2023-04-01T06:26:52.082Z,3.53
2023-04-01T06:29:36.994Z,4.20
2023-04-01T06:32:22.429Z,4.07
2023-04-01T06:35:28.231Z,3.63
2023-04-01T06:38:28.948Z,3.47
2023-04-01T06:41:43.318Z,3.10
2023-04-01T06:44:45.295Z,3.10
2023-04-01T06:47:22.185Z,2.65
2023-04-01T06:50:01.085Z,2.55
2023-04-01T06:52:51.184Z,2.38
2023-04-01T06:55:30.073Z,3.03
2023-04-01T06:58:00.046Z,2.92
2023-04-01T07:00:26.901Z,3.03
2023-04-01T07:03:06.992Z,3.35
2023-04-01T07:05:35.543Z,4.20
2023-04-01T07:08:11.593Z,3.92
2023-04-01T07:10:47.095Z,3.63
2023-04-01T07:13:23.138Z,4.30
2023-04-01T07:15:59.160Z,4.00
2023-04-01T07:18:51.099Z,3.63
2023-04-01T07:21:37.096Z,3.78
2023-04-01T07:24:12.519Z,4.07
2023-04-01T07:26:39.490Z,3.78
2023-04-01T07:29:14.802Z,3.75
2023-04-01T07:31:59.898Z,3.63
2023-04-01T07:34:30.261Z,3.72
2023-04-01T07:37:22.494Z,3.80
2023-04-01T07:40:10.478Z,3.60
2023-04-01T07:43:00.322Z,4.57
2023-04-01T07:45:48.281Z,4.03
2023-04-01T07:48:21.620Z,4.50
2023-04-01T07:51:03.846Z,4.57
2023-04-01T07:53:54.119Z,5.15
2023-04-01T07:56:36.277Z,5.13
2023-04-01T07:59:03.154Z,5.82
2023-04-01T08:01:59.246Z,6.05
2023-04-01T08:04:54.493Z,6.43
2023-04-01T08:07:26.803Z,5.45
2023-04-01T08:10:05.411Z,5.25
2023-04-01T08:13:16.121Z,5.20
2023-04-01T08:15:48.942Z,5.03
2023-04-01T08:18:31.003Z,4.75
2023-04-01T08:21:06.756Z,4.28
2023-04-01T08:23:46.191Z,4.20
2023-04-01T08:26:16.082Z,4.15
2023-04-01T08:28:50.189Z,4.60
2023-04-01T08:31:37.078Z,4.50
2023-04-01T08:34:09.548Z,5.20
2023-04-01T08:36:42.360Z,4.35
2023-04-01T08:39:24.325Z,4.10
2023-04-01T08:42:28.575Z,4.28
2023-04-01T08:45:08.941Z,4.35
2023-04-01T08:48:09.407Z,4.65
2023-04-01T08:50:48.353Z,4.22
2023-04-01T08:53:27.540Z,4.50
2023-04-01T08:56:19.710Z,4.40
2023-04-01T08:59:13.151Z,4.68
2023-04-01T09:01:43.039Z,6.07
2023-04-01T09:04:32.004Z,5.18
2023-04-01T09:06:58.856Z,3.70
2023-04-01T09:09:44.080Z,3.10
2023-04-01T09:12:32.185Z,4.05
2023-04-01T09:15:23.486Z,3.63
2023-04-01T09:18:21.276Z,3.50
2023-04-01T09:20:50.811Z,2.58
2023-04-01T09:23:49.179Z,2.10
2023-04-01T09:26:43.061Z,2.00
2023-04-01T09:29:28.461Z,2.08
2023-04-01T09:32:01.340Z,1.70
2023-04-01T09:34:40.254Z,1.90
2023-04-01T09:37:20.585Z,1.77
2023-04-01T09:40:12.027Z,1.48
2023-04-01T09:43:01.857Z,1.80
2023-04-01T09:45:53.629Z,1.88
2023-04-01T09:48:20.663Z,2.30
2023-04-01T09:51:07.004Z,2.03
2023-04-01T09:53:42.630Z,2.50
2023-04-01T09:56:40.320Z,2.40
2023-04-01T09:59:34.738Z,2.30
2023-04-01T10:02:29.460Z,1.98
2023-04-01T10:05:27.105Z,2.73
2023-04-01T10:08:12.768Z,2.80
2023-04-01T10:10:58.051Z,3.65
2023-04-01T10:14:02.182Z,2.58
2023-04-01T10:16:52.786Z,3.15
2023-04-01T10:19:47.023Z,3.70
2023-04-01T10:22:36.357Z,3.45
2023-04-01T10:25:39.971Z,3.90
2023-04-01T10:28:19.134Z,4.80
2023-04-01T10:30:57.853Z,4.75
2023-04-01T10:33:33.536Z,4.50
2023-04-01T10:36:24.756Z,5.07
2023-04-01T10:39:04.144Z,5.18
2023-04-01T10:41:36.896Z,5.40
2023-04-01T10:44:15.515Z,4.93
2023-04-01T10:46:50.824Z,3.83
2023-04-01T10:49:28.588Z,3.30
2023-04-01T10:51:58.459Z,3.38
2023-04-01T10:54:52.665Z,3.25
2023-04-01T10:57:38.258Z,4.28
2023-04-01T11:00:16.884Z,4.68
2023-04-01T11:02:43.758Z,4.13
2023-04-01T11:05:32.715Z,4.35
2023-04-01T11:08:18.440Z,3.55
2023-04-01T11:11:29.826Z,4.18
2023-04-01T11:14:18.078Z,4.32
2023-04-01T11:16:55.024Z,4.47
2023-04-01T11:19:40.719Z,4.65
2023-04-01T11:22:25.718Z,4.18
2023-04-01T11:25:01.683Z,4.23
2023-04-01T11:27:39.952Z,3.30
2023-04-01T11:30:21.251Z,3.20
2023-04-01T11:32:54.495Z,3.40
2023-04-01T11:35:33.361Z,3.70
2023-04-01T11:38:24.716Z,3.42
2023-04-01T11:41:19.461Z,3.55
2023-04-01T11:43:55.567Z,3.50
2023-04-01T11:46:36.711Z,3.20
2023-04-01T11:49:45.902Z,3.80
2023-04-01T11:52:34.755Z,3.65
2023-04-01T11:55:07.709Z,3.45
2023-04-01T11:57:53.364Z,3.50
2023-04-01T12:00:45.389Z,2.85
2023-04-01T12:03:30.893Z,2.80
2023-04-01T12:06:03.733Z,3.20
2023-04-01T12:08:39.501Z,3.53
2023-04-01T12:11:18.730Z,4.00
2023-04-01T12:14:06.297Z,4.00
2023-04-01T12:17:08.720Z,4.35
2023-04-01T12:19:35.492Z,4.38
2023-04-01T12:22:26.399Z,4.70
2023-04-01T12:25:17.375Z,4.15
2023-04-01T12:27:55.388Z,3.80
2023-04-01T12:30:31.076Z,3.63
2023-04-01T12:33:38.620Z,3.10
2023-04-01T12:36:11.362Z,3.28
2023-04-01T12:39:28.947Z,3.20
2023-04-01T12:41:58.472Z,3.35
2023-04-01T12:44:50.746Z,3.53
2023-04-01T12:47:41.574Z,3.17
2023-04-01T12:50:27.144Z,3.17
2023-04-01T12:53:27.169Z,3.30
2023-04-01T12:55:55.388Z,3.90
2023-04-01T12:58:30.957Z,3.60
2023-04-01T13:00:57.816Z,2.95
2023-04-01T13:03:33.416Z,3.33
2023-04-01T13:06:26.860Z,2.88
2023-04-01T13:09:09.345Z,2.90
2023-04-01T13:11:58.028Z,2.70
2023-04-01T13:15:06.137Z,2.90
2023-04-01T13:17:42.410Z,2.90
2023-04-01T13:20:21.439Z,3.28
2023-04-01T13:23:12.488Z,3.22
2023-04-01T13:26:06.902Z,3.65
2023-04-01T13:29:12.123Z,4.30
2023-04-01T13:31:52.233Z,3.97
2023-04-01T13:34:52.625Z,4.15
2023-04-01T13:37:24.756Z,3.42
2023-04-01T13:40:18.428Z,3.10
2023-04-01T13:42:51.986Z,2.35
2023-04-01T13:44:33.236Z,18.87
2023-04-01T13:45:21.409Z,2.90
2023-04-01T13:47:37.274Z,20.23
2023-04-01T13:48:26.012Z,2.92
2023-04-01T13:51:30.540Z,2.40
2023-04-01T13:54:34.634Z,2.67
2023-04-01T13:57:22.453Z,2.70
2023-04-01T14:00:27.750Z,2.72
2023-04-01T14:06:17.459Z,2.50
2023-04-01T14:09:15.053Z,2.67
2023-04-01T14:12:00.536Z,2.53
2023-04-01T14:14:48.728Z,2.70
2023-04-01T14:17:33.494Z,2.65
2023-04-01T14:20:29.492Z,3.33
2023-04-01T14:23:24.623Z,2.40
2023-04-01T14:26:13.385Z,2.35
2023-04-01T14:29:20.419Z,2.40
2023-04-01T14:32:12.987Z,2.83
2023-04-01T14:34:45.965Z,2.72
2023-04-01T14:37:27.784Z,3.30
2023-04-01T14:38:41.945Z,1.90
2023-04-01T14:40:19.871Z,3.15
2023-04-01T14:41:21.250Z,4.80
2023-04-01T14:43:16.802Z,2.72
2023-04-01T14:44:05.526Z,6.00
2023-04-01T14:46:20.587Z,2.92
2023-04-01T14:46:55.847Z,5.80
2023-04-01T14:49:01.395Z,3.47
2023-04-01T14:49:32.688Z,6.13
2023-04-01T14:51:35.953Z,3.13
2023-04-01T14:52:11.981Z,6.13
2023-04-01T14:54:11.991Z,2.88
2023-04-01T14:54:45.103Z,6.40
2023-04-01T14:56:43.169Z,3.60
2023-04-01T14:57:15.550Z,6.20
2023-04-01T14:59:28.124Z,3.65
2023-04-01T14:59:50.440Z,6.50
2023-04-01T15:02:19.061Z,3.10
2023-04-01T15:02:41.156Z,6.80
2023-04-01T15:04:55.572Z,2.85
2023-04-01T15:05:21.383Z,7.90
2023-04-01T15:07:42.096Z,2.53
2023-04-01T15:08:17.072Z,7.50
2023-04-01T15:10:36.266Z,3.00
2023-04-01T15:11:30.073Z,6.83
2023-04-01T15:13:06.156Z,2.80
2023-04-01T15:14:26.372Z,6.50
2023-04-01T15:15:59.053Z,3.20
2023-04-01T15:17:04.132Z,8.10
2023-04-01T15:18:42.310Z,2.58
2023-04-01T15:19:48.858Z,7.03
2023-04-01T15:21:50.941Z,2.88
2023-04-01T15:22:30.678Z,7.03
2023-04-01T15:24:36.625Z,2.38
2023-04-01T15:25:11.714Z,8.50
2023-04-01T15:27:22.613Z,2.83
2023-04-01T15:27:47.185Z,6.80
2023-04-01T15:29:49.558Z,3.88
2023-04-01T15:30:34.535Z,7.57
2023-04-01T15:32:28.356Z,3.17
2023-04-01T15:33:26.944Z,6.77
2023-04-01T15:35:22.312Z,3.35
2023-04-01T15:36:03.600Z,7.57
2023-04-01T15:37:55.241Z,3.13
2023-04-01T15:38:42.389Z,7.13
2023-04-01T15:40:31.520Z,3.40
2023-04-01T15:41:17.926Z,7.93
2023-04-01T15:43:15.073Z,2.72
2023-04-01T15:43:49.785Z,8.10
2023-04-01T15:45:50.936Z,2.10
2023-04-01T15:46:46.827Z,9.50
2023-04-01T15:48:43.909Z,2.40
2023-04-01T15:49:25.282Z,8.23
2023-04-01T15:51:51.955Z,2.13
2023-04-01T15:52:15.357Z,8.10
2023-04-01T15:54:27.496Z,2.08
2023-04-01T15:55:16.425Z,7.73
2023-04-01T15:56:57.571Z,2.22
2023-04-01T15:57:56.382Z,7.20
2023-04-01T15:59:48.659Z,2.53
2023-04-01T16:00:30.506Z,7.70
2023-04-01T16:02:24.290Z,4.00
2023-04-01T16:03:37.990Z,6.60
2023-04-01T16:05:00.696Z,2.97
2023-04-01T16:06:32.689Z,5.83
2023-04-01T16:08:04.772Z,3.33
2023-04-01T16:09:23.466Z,7.10
2023-04-01T16:10:56.415Z,3.28
2023-04-01T16:11:59.310Z,7.87
2023-04-01T16:13:32.485Z,3.42
2023-04-01T16:14:35.714Z,6.40
2023-04-01T16:17:19.921Z,8.33
2023-04-01T16:18:47.740Z,4.22
2023-04-01T16:19:55.267Z,8.13
2023-04-01T16:21:53.113Z,4.03
2023-04-01T16:22:28.084Z,7.63
2023-04-01T16:24:38.783Z,4.40
2023-04-01T16:25:03.572Z,7.17
2023-04-01T16:27:16.049Z,4.07
2023-04-01T16:27:38.417Z,6.83
2023-04-01T16:30:04.165Z,4.15
2023-04-01T16:30:28.674Z,8.00
2023-04-01T16:32:52.759Z,4.25
2023-04-01T16:33:03.741Z,6.07
2023-04-01T16:35:37.823Z,4.00
2023-04-01T16:35:43.752Z,7.20
2023-04-01T16:38:22.753Z,6.90
2023-04-01T16:38:34.150Z,4.47
2023-04-01T16:41:03.561Z,7.07
2023-04-01T16:41:32.605Z,4.00
2023-04-01T16:43:41.168Z,6.57
2023-04-01T16:44:30.080Z,3.65
2023-04-01T16:46:26.225Z,8.67
2023-04-01T16:47:07.480Z,3.97
2023-04-01T16:49:02.178Z,6.17
2023-04-01T16:49:53.296Z,3.65
2023-04-01T16:51:42.784Z,5.47
2023-04-01T16:55:18.820Z,4.40
2023-04-01T16:57:53.023Z,4.70
2023-04-01T17:00:39.476Z,4.93
2023-04-01T17:03:06.402Z,6.10
2023-04-01T17:06:00.337Z,5.78
2023-04-01T17:08:51.765Z,5.65
2023-04-01T17:11:30.005Z,6.75
2023-04-01T17:14:05.812Z,6.22
2023-04-01T17:16:55.990Z,5.20
2023-04-01T17:19:47.536Z,5.50
2023-04-01T17:22:28.817Z,4.95
2023-04-01T17:25:11.253Z,4.45
2023-04-01T17:28:05.340Z,4.60
2023-04-01T17:30:37.383Z,4.50
2023-04-01T17:33:22.212Z,4.88
2023-04-01T17:36:07.440Z,5.15
2023-04-01T17:38:56.307Z,5.68
2023-04-01T17:41:36.425Z,6.13
2023-04-01T17:44:22.164Z,7.68
2023-04-01T17:47:26.580Z,8.40
2023-04-01T17:50:34.325Z,9.33
2023-04-01T17:53:19.019Z,9.77
2023-04-01T17:56:14.726Z,9.85
2023-04-01T17:59:15.106Z,10.88
2023-04-01T18:02:15.001Z,12.02
2023-04-01T18:04:58.300Z,12.52
2023-04-01T18:07:46.859Z,11.90
2023-04-01T18:10:22.395Z,12.48
2023-04-01T18:13:01.845Z,12.23
2023-04-01T18:16:02.468Z,11.40
2023-04-01T18:19:06.396Z,13.60
2023-04-01T18:21:53.408Z,12.70
2023-04-01T18:24:23.282Z,13.23
2023-04-01T18:27:10.497Z,13.45
2023-04-01T18:29:45.533Z,12.18
2023-04-01T18:32:32.477Z,12.73
2023-04-01T18:35:52.836Z,12.35
2023-04-01T18:38:30.397Z,11.43
2023-04-01T18:41:28.632Z,10.05
2023-04-01T18:44:16.599Z,9.95
2023-04-01T18:46:54.442Z,12.15
2023-04-01T18:49:42.299Z,12.98
2023-04-01T18:52:35.193Z,15.23
2023-04-01T18:55:02.010Z,18.13
2023-04-01T18:57:50.664Z,18.50
2023-04-01T19:00:39.739Z,16.95
2023-04-01T19:03:21.161Z,17.73
2023-04-01T19:05:51.540Z,17.55
2023-04-01T19:08:27.464Z,17.48
2023-04-01T19:11:09.575Z,17.52
2023-04-01T19:14:13.533Z,18.05
2023-04-01T19:16:40.459Z,18.27
2023-04-01T19:19:16.433Z,17.73
2023-04-01T19:21:55.933Z,18.58
2023-04-01T19:24:59.577Z,19.20
2023-04-01T19:27:49.828Z,21.00
2023-04-01T19:30:41.093Z,21.17
2023-04-01T19:33:27.938Z,22.35
2023-04-01T19:36:28.868Z,21.60
2023-04-01T19:38:58.619Z,22.10
2023-04-01T19:41:58.759Z,21.52
2023-04-01T19:44:40.393Z,21.60
2023-04-01T19:47:39.202Z,22.63
2023-04-01T19:50:36.768Z,21.00
2023-04-01T19:53:19.658Z,20.23
2023-04-01T19:55:56.403Z,19.83
2023-04-01T19:58:52.501Z,20.13
2023-04-01T20:01:44.845Z,19.88
2023-04-01T20:04:26.455Z,19.63
2023-04-01T20:07:12.151Z,19.98
2023-04-01T20:10:04.094Z,20.35
2023-04-01T20:12:37.298Z,20.45
2023-04-01T20:15:26.305Z,16.27
2023-04-01T20:17:56.085Z,16.13
2023-04-01T20:20:29.141Z,16.77
2023-04-01T20:23:51.274Z,14.73
2023-04-01T20:26:51.529Z,13.40
2023-04-01T20:29:37.732Z,12.15
2023-04-01T20:32:42.120Z,11.23
2023-04-01T20:35:40.801Z,11.70
2023-04-01T20:38:30.064Z,11.88
2023-04-01T20:41:20.670Z,11.38
2023-04-01T20:44:15.605Z,12.20
2023-04-01T20:47:23.647Z,11.57
2023-04-01T20:50:25.222Z,11.48
2023-04-01T20:53:02.517Z,11.43
2023-04-01T20:55:53.467Z,10.10
2023-04-01T20:58:47.937Z,9.57
2023-04-01T21:01:25.822Z,10.23
2023-04-01T21:04:30.790Z,10.75
2023-04-01T21:07:12.211Z,10.55
2023-04-01T21:09:50.963Z,10.30
2023-04-01T21:12:28.463Z,10.20
2023-04-01T21:15:10.673Z,10.93
2023-04-01T21:18:02.475Z,12.23
2023-04-01T21:20:43.274Z,12.18
2023-04-01T21:23:55.763Z,12.38
2023-04-01T21:26:43.852Z,12.43
2023-04-01T21:29:37.425Z,12.40
2023-04-01T21:32:33.322Z,13.77
2023-04-01T21:35:31.388Z,14.65
2023-04-01T21:38:20.171Z,14.73
2023-04-01T21:41:02.909Z,15.23
2023-04-01T21:43:40.800Z,15.60
2023-04-01T21:46:19.781Z,16.45
2023-04-01T21:49:01.462Z,16.27
2023-04-01T21:51:53.028Z,18.55
2023-04-01T21:54:48.211Z,18.95
2023-04-01T21:57:30.787Z,17.75
2023-04-01T22:00:17.201Z,18.08
2023-04-01T22:02:50.547Z,17.70
2023-04-01T22:05:32.624Z,18.02
2023-04-01T22:08:05.443Z,18.25
2023-04-01T22:10:48.031Z,14.57
2023-04-01T22:13:29.413Z,14.50
2023-04-01T22:16:37.662Z,14.90
2023-04-01T22:19:14.311Z,15.55
2023-04-01T22:22:06.304Z,16.40
2023-04-01T22:24:44.704Z,17.70
2023-04-01T22:27:38.894Z,16.98
2023-04-01T22:30:11.472Z,17.42
2023-04-01T22:32:52.106Z,16.95
2023-04-01T22:35:18.899Z,17.40
2023-04-01T22:38:23.312Z,16.75
2023-04-01T22:41:08.696Z,19.00
2023-04-01T22:43:45.908Z,20.45
2023-04-01T22:46:39.711Z,21.35
2023-04-01T22:49:18.103Z,21.30
2023-04-01T22:52:12.718Z,21.10
2023-04-01T22:54:57.368Z,21.83
2023-04-01T22:57:39.498Z,21.23
2023-04-01T23:00:09.448Z,21.13
2023-04-01T23:02:43.422Z,20.40
2023-04-01T23:05:21.267Z,20.65
2023-04-01T23:08:07.290Z,20.70
2023-04-01T23:10:50.542Z,20.85
2023-04-01T23:13:22.965Z,21.77
2023-04-01T23:15:54.058Z,20.50
2023-04-01T23:18:53.895Z,20.85
2023-04-01T23:21:42.068Z,19.00
2023-04-01T23:24:29.069Z,19.38
2023-04-01T23:27:36.111Z,20.17
2023-04-01T23:30:04.370Z,19.35
2023-04-01T23:32:31.470Z,19.75
2023-04-01T23:35:00.814Z,17.83
2023-04-01T23:37:28.237Z,18.20
2023-04-01T23:39:59.850Z,17.45
2023-04-01T23:42:40.298Z,17.00
2023-04-01T23:45:18.171Z,17.92
2023-04-01T23:47:50.504Z,18.10
2023-04-01T23:50:26.445Z,18.67
2023-04-01T23:52:59.850Z,17.65
2023-04-01T23:55:35.025Z,18.83
2023-04-01T23:58:08.505Z,18.15
